Terminal Aerodrome Forecast
Issued by NWS Cleveland, OH

Home | Current Version | Previous Version | Text Only | Print | Product List | Glossary Off
Versions: 1 2 3 4 5 6 7 8 9 10 11 12 13 14 15 16 17 18 19 20 21 22 23 24 25 26 27 28 29 30 31 32

257
FTUS41 KCLE 212041 AAB
TAFCLE
TAF AMD
KCLE 212041Z 2121/2224 18010KT P6SM OVC200
     FM220000 16005KT P6SM BKN120
     FM220300 18005KT 6SM BR SCT025 OVC120
     FM220800 16005KT 4SM BR SCT012 OVC025
      TEMPO 2209/2213 2SM BR BKN012
     FM221400 09005KT 6SM BR BKN025
     FM221800 06011KT P6SM BKN045=

USA.gov is the U.S. government's official web portal to all federal, state and local government web resources and services.